Time;durP1;ratioP1;P1;durP2;ratioP2;P2;SDS_P1;SDS_P2;PMS_P1;PMS_P2;Temp;Humidity;BMP_temperature;BMP_pressure;BME280_temperature;BME280_humidity;BME280_pressure;Samples;Min_cycle;Max_cycle;Signal;HPM_P1;HPM_P2
2022/11/06 00:00:57;;;;;;;512.03;338.17;;;;;;;7.25;100.00;99014.09;5056425;28;20041;-68
2022/11/06 00:03:23;;;;;;;515.20;342.87;;;;;;;7.26;100.00;98998.78;5056223;28;20045;-67
2022/11/06 00:08:39;;;;;;;510.47;333.00;;;;;;;7.35;100.00;99019.19;5054619;28;20494;-66
2022/11/06 00:11:10;;;;;;;512.23;330.47;;;;;;;7.40;100.00;99023.44;5037314;28;20049;-67
2022/11/06 00:13:37;;;;;;;514.30;335.00;;;;;;;7.34;100.00;99026.84;5054947;28;20139;-68
2022/11/06 00:16:04;;;;;;;511.70;335.80;;;;;;;7.27;100.00;99020.03;5057597;28;20048;-71
2022/11/06 00:18:31;;;;;;;514.17;339.70;;;;;;;7.29;100.00;99038.75;5053531;28;20052;-66
2022/11/06 00:20:56;;;;;;;509.10;332.27;;;;;;;7.27;100.00;99038.75;5041664;28;20522;-66
2022/11/06 00:23:22;;;;;;;512.37;342.80;;;;;;;7.24;100.00;99037.88;5050408;28;20090;-64
2022/11/06 00:25:51;;;;;;;511.77;339.20;;;;;;;7.23;100.00;99028.53;5053298;28;20052;-66
2022/11/06 00:28:18;;;;;;;506.87;334.10;;;;;;;7.20;100.00;99034.50;5055108;28;20041;-67
2022/11/06 00:30:44;;;;;;;511.83;342.50;;;;;;;7.20;100.00;99031.09;5054003;28;20048;-67
2022/11/06 00:33:09;;;;;;;511.93;339.93;;;;;;;7.29;100.00;99031.97;5053595;28;20049;-67
2022/11/06 00:35:38;;;;;;;512.10;340.73;;;;;;;7.37;100.00;99031.94;5053386;28;20036;-66
2022/11/06 00:38:03;;;;;;;508.43;340.30;;;;;;;7.37;100.00;99033.66;5053053;28;20037;-67
2022/11/06 00:40:29;;;;;;;509.93;340.17;;;;;;;7.20;100.00;99014.09;5054043;28;20044;-66
2022/11/06 00:42:56;;;;;;;511.00;341.97;;;;;;;7.31;100.00;99040.44;5054121;28;20040;-68
2022/11/06 00:45:23;;;;;;;515.50;349.47;;;;;;;7.31;100.00;99031.94;5046000;28;20041;-66
2022/11/06 00:47:49;;;;;;;513.13;343.17;;;;;;;7.07;100.00;99007.28;5030125;28;20467;-66
2022/11/06 00:50:16;;;;;;;513.90;336.10;;;;;;;7.21;100.00;99012.41;5053015;28;20033;-68
2022/11/06 00:52:43;;;;;;;512.20;343.83;;;;;;;7.24;100.00;99025.13;5051806;28;20555;-68
2022/11/06 00:55:08;;;;;;;512.83;340.63;;;;;;;7.06;100.00;99010.69;5046742;28;20075;-66
2022/11/06 00:57:34;;;;;;;507.80;329.40;;;;;;;7.04;100.00;99017.47;5050380;28;20131;-66
2022/11/06 01:00:00;;;;;;;507.70;336.40;;;;;;;7.18;100.00;99041.28;5051696;28;20061;-67
2022/11/06 01:02:26;;;;;;;506.77;332.63;;;;;;;7.18;100.00;99038.72;5051997;28;20049;-66
2022/11/06 01:04:51;;;;;;;504.93;330.13;;;;;;;7.07;100.00;99032.78;5052924;28;20048;-67
2022/11/06 01:07:17;;;;;;;503.67;338.53;;;;;;;7.05;100.00;99031.06;5052928;28;20052;-66
2022/11/06 01:09:43;;;;;;;500.03;333.23;;;;;;;7.13;100.00;99027.66;5053747;28;20040;-67
2022/11/06 01:12:09;;;;;;;515.23;330.47;;;;;;;7.02;100.00;99013.22;5054216;28;20133;-66
2022/11/06 01:14:35;;;;;;;511.00;328.00;;;;;;;7.12;100.00;99028.53;5052911;28;20138;-68
2022/11/06 01:17:01;;;;;;;510.03;336.23;;;;;;;7.01;100.00;99020.00;5052047;28;20037;-68
2022/11/06 01:19:26;;;;;;;504.83;330.87;;;;;;;7.11;100.00;99033.63;5053757;28;20051;-68
2022/11/06 01:21:52;;;;;;;504.53;325.80;;;;;;;7.08;100.00;99028.53;5052975;28;20041;-67
2022/11/06 01:24:22;;;;;;;499.47;329.43;;;;;;;7.01;100.00;99029.34;5053015;28;20178;-68
2022/11/06 01:26:48;;;;;;;499.10;327.23;;;;;;;6.96;100.00;99019.16;5052469;28;20588;-68
2022/11/06 01:29:15;;;;;;;498.10;336.13;;;;;;;6.98;100.00;99034.44;5052758;28;20385;-68
2022/11/06 01:31:41;;;;;;;494.40;330.37;;;;;;;6.95;100.00;99029.34;5052436;28;20113;-67
2022/11/06 01:34:08;;;;;;;495.73;333.97;;;;;;;6.88;100.00;99020.84;5052655;28;20083;-67
2022/11/06 01:36:33;;;;;;;497.33;335.57;;;;;;;6.87;100.00;99029.34;5052132;28;20085;-65
2022/11/06 01:39:02;;;;;;;498.37;334.10;;;;;;;6.88;100.00;99021.69;5044399;28;20044;-68
2022/11/06 01:41:31;;;;;;;499.90;330.13;;;;;;;6.94;100.00;99031.06;5049173;28;20597;-67
2022/11/06 01:43:58;;;;;;;495.43;327.93;;;;;;;6.95;100.00;99035.31;5053125;28;20353;-67
2022/11/06 01:46:27;;;;;;;490.47;320.37;;;;;;;6.90;100.00;99024.25;5053865;28;20462;-66
2022/11/06 01:49:00;;;;;;;496.70;327.97;;;;;;;6.91;100.00;99042.94;5040904;28;20554;-66
2022/11/06 01:51:28;;;;;;;501.70;325.93;;;;;;;6.91;100.00;99036.16;5054065;28;20112;-66
2022/11/06 01:53:54;;;;;;;496.33;331.77;;;;;;;6.84;100.00;99037.81;5051968;28;20051;-65
2022/11/06 01:56:22;;;;;;;491.27;329.20;;;;;;;6.88;100.00;99036.13;5047730;28;20048;-65
2022/11/06 01:58:51;;;;;;;515.33;328.13;;;;;;;6.77;100.00;99014.88;5045112;28;20446;-66
2022/11/06 02:01:17;;;;;;;515.83;321.87;;;;;;;6.81;100.00;99024.22;5052767;28;20049;-67
2022/11/06 02:04:00;;;;;;;515.80;325.70;;;;;;;6.75;100.00;99014.00;5052942;28;20048;-67
2022/11/06 02:06:27;;;;;;;513.30;316.80;;;;;;;6.77;100.00;99014.88;5052754;28;20457;-65
2022/11/06 02:08:53;;;;;;;514.80;325.63;;;;;;;6.91;100.00;99031.06;5032925;28;20518;-68
2022/11/06 02:11:19;;;;;;;512.27;323.83;;;;;;;6.86;100.00;99031.03;5051734;28;20033;-68
2022/11/06 02:13:59;;;;;;;512.73;325.23;;;;;;;6.73;100.00;99013.16;5051875;28;20044;-67
2022/11/06 02:16:43;;;;;;;513.80;320.23;;;;;;;6.90;100.00;99031.91;5051944;28;20052;-66
2022/11/06 02:19:28;;;;;;;513.20;325.63;;;;;;;6.93;100.00;99042.09;5050336;28;20826;-66
2022/11/06 02:22:02;;;;;;;512.77;319.20;;;;;;;6.89;100.00;99040.38;5053958;28;20403;-66
2022/11/06 02:24:46;;;;;;;519.53;325.90;;;;;;;6.94;100.00;99042.94;5047402;28;20049;-65
2022/11/06 02:27:21;;;;;;;510.37;328.10;;;;;;;6.90;100.00;99042.09;5047467;28;20164;-67
2022/11/06 02:29:55;;;;;;;511.52;327.55;;;;;;;6.89;100.00;99043.78;5052187;28;20182;-66
2022/11/06 02:32:32;;;;;;;513.17;322.97;;;;;;;6.70;100.00;99015.72;5057407;28;20829;-67
2022/11/06 02:35:04;;;;;;;511.97;320.07;;;;;;;6.85;100.00;99039.53;5055479;28;20482;-66
2022/11/06 02:37:35;;;;;;;514.17;323.37;;;;;;;6.90;100.00;99037.00;5055510;28;20040;-67
2022/11/06 02:40:05;;;;;;;515.40;325.87;;;;;;;6.72;100.00;99019.97;5052148;28;20049;-67
2022/11/06 02:42:36;;;;;;;511.97;320.90;;;;;;;6.76;100.00;99031.84;5056047;28;20702;-65
2022/11/06 02:45:04;;;;;;;509.27;311.57;;;;;;;6.81;100.00;99042.06;5054951;28;20055;-67
2022/11/06 02:47:32;;;;;;;510.93;315.67;;;;;;;6.83;100.00;99043.75;5055757;28;20309;-67
2022/11/06 02:50:05;;;;;;;511.70;319.73;;;;;;;6.81;100.00;99037.81;5037880;28;20067;-66
2022/11/06 02:52:37;;;;;;;514.47;320.27;;;;;;;6.81;100.00;99035.28;5055646;28;20043;-66
2022/11/06 02:55:09;;;;;;;512.30;318.63;;;;;;;6.77;100.00;99037.81;5053724;28;20047;-66
2022/11/06 02:57:40;;;;;;;514.00;321.40;;;;;;;6.81;100.00;99044.63;5055437;28;20047;-67
2022/11/06 03:00:08;;;;;;;512.90;319.57;;;;;;;6.86;100.00;99043.78;5056039;28;20059;-65
2022/11/06 03:02:39;;;;;;;512.87;320.17;;;;;;;6.82;100.00;99041.22;5055085;28;20052;-67
2022/11/06 03:05:09;;;;;;;516.60;322.57;;;;;;;6.77;100.00;99022.53;5054341;28;20044;-68
2022/11/06 03:07:50;;;;;;;514.40;321.17;;;;;;;6.94;100.00;99038.69;5055300;28;20039;-67
2022/11/06 03:10:16;;;;;;;513.97;315.50;;;;;;;6.97;100.00;99053.13;5055325;28;20041;-69
2022/11/06 03:12:53;;;;;;;517.23;319.97;;;;;;;7.02;100.00;99054.84;5042230;28;20562;-69
2022/11/06 03:15:26;;;;;;;511.37;319.90;;;;;;;7.02;100.00;99048.91;5055063;28;20098;-68
2022/11/06 03:18:09;;;;;;;512.87;323.40;;;;;;;7.01;100.00;99047.19;5053748;28;20067;-70
2022/11/06 03:20:56;;;;;;;512.93;316.27;;;;;;;6.96;100.00;99034.44;5055432;28;20096;-70
2022/11/06 03:23:31;;;;;;;514.07;323.00;;;;;;;6.87;100.00;99016.59;5056318;28;20479;-68
2022/11/06 03:26:12;;;;;;;511.67;317.52;;;;;;;6.99;100.00;99049.75;5056330;28;20040;-71
2022/11/06 03:29:04;;;;;;;514.73;324.73;;;;;;;7.00;100.00;99053.97;5055392;28;20051;-70
2022/11/06 03:31:39;;;;;;;512.03;315.93;;;;;;;6.93;100.00;99049.72;5054953;28;20048;-71
2022/11/06 03:34:09;;;;;;;380.95;233.30;;;;;;;6.89;100.00;99059.06;5056312;28;20056;-70
2022/11/06 03:36:44;;;;;;;512.43;314.37;;;;;;;6.90;100.00;99057.38;5055823;28;21004;-70
2022/11/06 03:39:19;;;;;;;513.97;312.13;;;;;;;6.70;100.00;99034.41;5056520;28;20095;-70
2022/11/06 03:41:53;;;;;;;512.40;313.43;;;;;;;6.76;100.00;99033.56;5039279;28;20072;-74
2022/11/06 03:44:23;;;;;;;511.17;307.03;;;;;;;6.82;100.00;99047.19;5057510;28;20044;-71
2022/11/06 03:47:10;;;;;;;513.30;309.17;;;;;;;6.69;100.00;99039.50;5059329;28;20127;-70
2022/11/06 03:49:41;;;;;;;508.53;304.70;;;;;;;6.61;100.00;99034.38;5056400;28;20047;-70
2022/11/06 03:52:13;;;;;;;511.07;308.07;;;;;;;6.75;100.00;99060.72;5055919;28;20032;-71
2022/11/06 03:54:46;;;;;;;513.30;311.43;;;;;;;6.76;100.00;99064.13;5056434;28;20087;-68
2022/11/06 03:57:20;;;;;;;514.07;311.87;;;;;;;6.74;100.00;99068.38;5054884;28;20136;-64
2022/11/06 03:59:51;;;;;;;514.90;322.53;;;;;;;6.67;100.00;99054.75;5055642;28;20052;-63
2022/11/06 04:02:19;;;;;;;517.23;318.67;;;;;;;6.64;100.00;99052.22;5056291;28;20777;-66
2022/11/06 04:04:54;;;;;;;513.03;312.27;;;;;;;6.57;100.00;99037.75;5054226;28;20083;-64
2022/11/06 04:07:32;;;;;;;514.58;315.90;;;;;;;6.69;100.00;99059.88;5036887;28;20525;-65
2022/11/06 04:15:39;;;;;;;509.60;299.50;;;;;;;6.54;100.00;99057.25;5053587;28;20079;-65
2022/11/06 04:18:12;;;;;;;511.83;300.17;;;;;;;6.39;100.00;99032.59;5055210;28;20127;-66
2022/11/06 04:26:34;;;;;;;507.60;294.20;;;;;;;6.39;100.00;99035.13;5054809;28;20091;-66
2022/11/06 04:26:53;;;;;;;508.83;297.37;;;;;;;6.38;100.00;99048.69;5054107;28;20040;-71
2022/11/06 04:29:40;;;;;;;510.17;299.80;;;;;;;6.34;100.00;99040.22;5054081;28;20539;-63
2022/11/06 04:32:26;;;;;;;509.43;294.20;;;;;;;6.51;100.00;99068.28;5053470;28;20404;-67
2022/11/06 04:35:00;;;;;;;510.48;291.48;;;;;;;6.48;100.00;99072.53;5052296;28;20491;-68
2022/11/06 04:38:12;;;;;;;510.27;302.87;;;;;;;6.41;100.00;99074.19;5051355;28;20541;-68
2022/11/06 04:40:49;;;;;;;513.60;298.50;;;;;;;6.36;100.00;99080.97;5037300;28;20063;-66
2022/11/06 04:43:47;;;;;;;513.33;303.37;;;;;;;6.38;100.00;99076.72;5051740;28;20060;-68
2022/11/06 04:46:20;;;;;;;508.70;302.27;;;;;;;6.33;100.00;99066.50;5044468;28;20049;-66
2022/11/06 04:48:46;;;;;;;510.67;311.00;;;;;;;6.29;100.00;99085.16;5046806;28;20041;-67
2022/11/06 04:51:13;;;;;;;514.23;320.40;;;;;;;6.10;100.00;99087.59;5044484;28;20063;-69
2022/11/06 04:53:41;;;;;;;511.37;310.90;;;;;;;5.83;100.00;99066.19;5043912;28;20048;-68
2022/11/06 04:56:12;;;;;;;518.10;314.53;;;;;;;5.90;100.00;99085.75;5052089;28;20491;-67
2022/11/06 04:58:38;;;;;;;513.80;309.20;;;;;;;5.89;100.00;99088.31;5052414;28;20136;-68
2022/11/06 05:01:04;;;;;;;513.93;313.37;;;;;;;6.03;100.00;99089.25;5052129;28;20496;-67
2022/11/06 05:03:30;;;;;;;513.87;316.20;;;;;;;5.80;100.00;99085.66;5043882;28;20044;-68
2022/11/06 05:05:55;;;;;;;512.33;314.80;;;;;;;5.51;100.00;99076.13;5045099;28;20040;-69
2022/11/06 05:08:21;;;;;;;514.80;318.47;;;;;;;5.58;100.00;99092.28;5051647;28;20067;-68
2022/11/06 05:10:47;;;;;;;514.70;316.23;;;;;;;5.36;100.00;99068.34;5053578;28;20126;-68
2022/11/06 05:13:14;;;;;;;514.00;309.37;;;;;;;5.38;100.00;99091.28;5050804;28;20068;-67
2022/11/06 05:15:40;;;;;;;511.10;310.93;;;;;;;5.30;100.00;99095.44;5047535;28;20544;-68
2022/11/06 05:18:06;;;;;;;511.20;299.33;;;;;;;5.17;100.00;99096.16;5047825;28;20075;-68
2022/11/06 05:20:32;;;;;;;508.90;300.60;;;;;;;5.13;100.00;99102.03;5053462;28;20767;-68
2022/11/06 05:23:01;;;;;;;509.67;297.30;;;;;;;5.07;100.00;99103.69;5034033;28;20406;-67
2022/11/06 05:25:30;;;;;;;511.37;304.37;;;;;;;5.02;100.00;99079.03;5051870;28;20118;-68
2022/11/06 05:27:56;;;;;;;508.27;288.97;;;;;;;5.47;100.00;99101.53;5052138;28;20479;-70
2022/11/06 05:30:24;;;;;;;506.67;285.50;;;;;;;5.66;100.00;99094.88;5035166;28;20140;-68
2022/11/06 05:32:50;;;;;;;508.33;293.07;;;;;;;5.75;100.00;99089.88;5053435;28;20040;-68
2022/11/06 05:35:17;;;;;;;508.10;292.40;;;;;;;5.78;100.00;99100.06;5053793;28;20040;-68
2022/11/06 05:37:43;;;;;;;508.43;291.87;;;;;;;5.72;100.00;99095.78;5051858;28;20094;-68
2022/11/06 05:40:08;;;;;;;510.70;292.83;;;;;;;5.79;100.00;99096.69;5053047;28;20036;-68
2022/11/06 05:42:39;;;;;;;506.73;288.17;;;;;;;5.61;100.00;99068.56;5052918;28;20395;-68
2022/11/06 05:45:05;;;;;;;507.57;288.97;;;;;;;5.68;100.00;99083.91;5052302;28;20041;-68
2022/11/06 05:47:32;;;;;;;508.93;293.57;;;;;;;5.65;100.00;99086.41;5051269;28;20075;-64
2022/11/06 05:49:57;;;;;;;506.13;286.47;;;;;;;5.53;100.00;99084.63;5050492;28;20164;-66
2022/11/06 05:52:23;;;;;;;509.70;293.13;;;;;;;5.32;100.00;99068.31;5052517;28;20143;-65
2022/11/06 05:54:48;;;;;;;505.03;286.00;;;;;;;5.40;100.00;99098.06;5050268;28;20049;-68
2022/11/06 05:57:14;;;;;;;507.10;287.83;;;;;;;5.38;100.00;99098.91;5053137;28;20090;-65
2022/11/06 05:59:40;;;;;;;509.37;287.60;;;;;;;5.16;100.00;99076.66;5035402;28;20061;-65
2022/11/06 06:02:06;;;;;;;507.20;290.73;;;;;;;5.19;100.00;99092.78;5030359;28;20057;-67
2022/11/06 06:04:32;;;;;;;513.03;288.67;;;;;;;5.21;100.00;99092.81;5035846;28;20067;-65
2022/11/06 06:06:58;;;;;;;508.17;285.63;;;;;;;5.51;100.00;99095.63;5037032;28;20668;-66
2022/11/06 06:09:23;;;;;;;504.63;282.07;;;;;;;5.62;100.00;99088.91;5036362;28;20036;-67
2022/11/06 06:11:51;;;;;;;503.13;276.20;;;;;;;5.62;100.00;99072.81;5038377;28;20044;-66
2022/11/06 06:14:17;;;;;;;501.53;278.97;;;;;;;5.74;100.00;99090.69;5035521;28;20136;-64
2022/11/06 06:16:43;;;;;;;503.60;279.77;;;;;;;5.88;100.00;99101.88;5036190;28;20045;-66
2022/11/06 06:19:09;;;;;;;503.63;280.50;;;;;;;5.97;100.00;99107.03;5036899;28;20037;-65
2022/11/06 06:21:35;;;;;;;505.67;285.97;;;;;;;6.00;100.00;99107.03;5032363;28;20545;-65
2022/11/06 06:24:05;;;;;;;506.33;286.40;;;;;;;6.00;100.00;99103.63;5028772;28;20543;-65
2022/11/06 06:26:32;;;;;;;506.27;285.83;;;;;;;5.86;100.00;99090.78;5034533;28;20044;-64
2022/11/06 06:28:57;;;;;;;505.53;285.83;;;;;;;5.95;100.00;99104.47;5036052;28;20049;-65
2022/11/06 06:31:23;;;;;;;507.73;289.93;;;;;;;5.94;100.00;99101.94;5034113;28;20046;-65
2022/11/06 06:33:48;;;;;;;513.40;292.50;;;;;;;5.94;100.00;99104.47;5034756;28;20109;-63
2022/11/06 06:36:14;;;;;;;508.97;289.17;;;;;;;6.01;100.00;99100.25;5035203;28;20041;-65
2022/11/06 06:38:40;;;;;;;506.37;287.60;;;;;;;6.05;100.00;99079.94;5035614;28;20176;-65
2022/11/06 06:41:07;;;;;;;508.00;296.37;;;;;;;6.31;100.00;99093.66;5033528;28;20037;-64
2022/11/06 06:43:34;;;;;;;509.67;299.73;;;;;;;6.38;100.00;99076.72;5035202;28;20033;-62
2022/11/06 06:46:02;;;;;;;513.47;308.47;;;;;;;6.68;100.00;99104.00;5034182;28;20072;-65
2022/11/06 06:48:28;;;;;;;509.33;304.97;;;;;;;6.85;100.00;99099.84;5028698;28;20100;-63
2022/11/06 06:50:59;;;;;;;510.73;308.17;;;;;;;6.97;100.00;99104.97;5028305;28;20036;-66
2022/11/06 06:53:25;;;;;;;513.47;313.17;;;;;;;6.98;100.00;99081.19;5033311;28;20041;-66
2022/11/06 06:55:51;;;;;;;513.97;326.73;;;;;;;7.22;100.00;99099.06;5042150;28;20490;-65
2022/11/06 06:58:16;;;;;;;515.67;328.83;;;;;;;7.21;100.00;99104.19;5034372;28;20056;-66
2022/11/06 07:00:42;;;;;;;513.77;324.37;;;;;;;7.17;100.00;99080.38;5034214;28;20206;-66
2022/11/06 07:03:09;;;;;;;515.13;333.27;;;;;;;7.41;100.00;99099.13;5055455;28;20060;-66
2022/11/06 07:05:35;;;;;;;516.87;336.50;;;;;;;7.55;100.00;99102.53;5054269;28;20101;-66
2022/11/06 07:08:01;;;;;;;516.33;335.97;;;;;;;7.57;100.00;99100.81;5055185;28;20339;-66
2022/11/06 07:10:26;;;;;;;516.87;345.87;;;;;;;7.64;100.00;99098.25;5051761;28;20029;-65
2022/11/06 07:12:52;;;;;;;520.57;353.57;;;;;;;7.58;100.00;99088.06;5030557;28;20041;-66
2022/11/06 07:15:18;;;;;;;516.37;341.27;;;;;;;7.72;100.00;99078.69;5052373;28;20055;-65
2022/11/06 07:17:43;;;;;;;517.67;349.90;;;;;;;7.87;100.00;99097.41;5055176;28;20045;-64
2022/11/06 07:20:09;;;;;;;520.77;353.10;;;;;;;7.89;100.00;99078.72;5041195;28;20502;-65
2022/11/06 07:22:34;;;;;;;523.70;366.93;;;;;;;7.96;100.00;99082.09;5050173;28;20069;-66
2022/11/06 07:25:00;;;;;;;524.30;368.50;;;;;;;8.13;100.00;99105.91;5050434;28;20546;-66
2022/11/06 07:27:26;;;;;;;517.97;362.30;;;;;;;8.21;100.00;99111.84;5052014;28;20095;-66
2022/11/06 07:29:52;;;;;;;519.47;370.40;;;;;;;8.18;100.00;99087.16;5040765;28;20051;-65
2022/11/06 07:32:17;;;;;;;522.43;375.13;;;;;;;8.42;100.00;99108.41;5049600;28;20375;-66
2022/11/06 07:34:43;;;;;;;524.47;383.30;;;;;;;8.47;100.00;99111.81;5033696;28;20623;-66
2022/11/06 07:37:09;;;;;;;523.87;388.30;;;;;;;8.62;100.00;99104.94;5049622;28;20056;-66
2022/11/06 07:39:34;;;;;;;522.90;385.37;;;;;;;8.63;100.00;99093.88;5052382;28;20032;-67
2022/11/06 07:42:00;;;;;;;524.23;388.33;;;;;;;8.74;100.00;99098.94;5054626;28;20175;-67
2022/11/06 07:44:32;;;;;;;526.00;389.93;;;;;;;8.80;100.00;99095.50;5044792;28;20130;-65
2022/11/06 07:46:58;;;;;;;524.17;400.90;;;;;;;8.66;100.00;99093.84;5046312;28;20440;-66
2022/11/06 07:49:23;;;;;;;522.23;395.40;;;;;;;8.69;100.00;99096.41;5035772;28;20462;-66
2022/11/06 07:51:49;;;;;;;527.97;407.27;;;;;;;8.75;100.00;99071.66;5050549;28;20575;-67
2022/11/06 07:54:14;;;;;;;526.43;409.07;;;;;;;8.85;100.00;99081.00;5047451;28;20108;-66
2022/11/06 07:56:40;;;;;;;524.33;407.57;;;;;;;8.94;100.00;99096.28;5051563;28;20463;-67
2022/11/06 07:59:05;;;;;;;526.87;409.30;;;;;;;8.98;100.00;99080.94;5054497;28;20084;-67
2022/11/06 08:01:31;;;;;;;526.63;410.17;;;;;;;8.88;100.00;99061.38;5054994;28;20075;-67
2022/11/06 08:03:56;;;;;;;529.43;418.53;;;;;;;9.06;100.00;99091.97;5039645;28;20135;-66
2022/11/06 08:06:22;;;;;;;527.50;417.40;;;;;;;9.16;100.00;99080.78;5054045;28;20373;-65
2022/11/06 08:08:48;;;;;;;529.73;424.53;;;;;;;9.23;100.00;99091.84;5048449;28;20554;-65
2022/11/06 08:11:13;;;;;;;531.33;428.13;;;;;;;9.18;100.00;99073.97;5047723;28;20161;-67
2022/11/06 08:13:39;;;;;;;528.80;423.73;;;;;;;9.40;100.00;99090.03;5051949;28;20102;-65
2022/11/06 08:16:07;;;;;;;529.77;433.77;;;;;;;9.47;100.00;99088.28;5055572;28;20036;-64
2022/11/06 08:18:33;;;;;;;532.80;440.53;;;;;;;9.55;100.00;99069.44;5052063;28;20047;-67
2022/11/06 08:20:59;;;;;;;530.70;444.53;;;;;;;9.81;100.00;99082.03;5039474;28;20033;-67
2022/11/06 08:23:24;;;;;;;535.07;451.83;;;;;;;9.76;100.00;99065.84;5049686;28;20052;-65
2022/11/06 08:25:56;;;;;;;538.00;457.20;;;;;;;10.00;100.00;99081.00;5047699;28;20036;-68
2022/11/06 08:28:24;;;;;;;539.50;464.77;;;;;;;9.78;100.00;99061.56;5048201;28;20390;-66
2022/11/06 08:30:49;;;;;;;539.63;467.00;;;;;;;9.90;100.00;99052.91;5047828;28;20029;-67
2022/11/06 08:33:15;;;;;;;536.57;467.77;;;;;;;10.15;100.00;99076.59;5054882;28;20109;-66
2022/11/06 08:35:40;;;;;;;540.03;476.63;;;;;;;10.22;100.00;99074.00;5041744;28;20102;-66
2022/11/06 08:38:06;;;;;;;538.07;471.13;;;;;;;10.25;100.00;99076.50;5053513;28;20072;-65
2022/11/06 08:40:32;;;;;;;546.87;486.70;;;;;;;10.24;100.00;99066.28;5053490;28;20075;-66
2022/11/06 08:42:59;;;;;;;545.53;485.43;;;;;;;10.41;100.00;99065.22;5054221;28;20053;-65
2022/11/06 08:45:24;;;;;;;557.43;497.10;;;;;;;10.41;100.00;99057.53;5054346;28;20336;-65
2022/11/06 08:47:51;;;;;;;562.93;502.40;;;;;;;10.37;100.00;99044.78;5040114;28;20508;-68
2022/11/06 08:50:17;;;;;;;558.87;498.33;;;;;;;10.47;100.00;99060.03;5046418;28;20045;-67
2022/11/06 08:52:42;;;;;;;566.33;505.80;;;;;;;10.38;100.00;99033.66;5051683;28;20045;-67
2022/11/06 08:55:08;;;;;;;578.10;517.27;;;;;;;10.63;100.00;99055.56;5046826;28;20137;-65
2022/11/06 08:57:33;;;;;;;578.03;517.27;;;;;;;10.64;100.00;99053.84;5050949;28;20112;-63
2022/11/06 08:59:59;;;;;;;579.53;518.30;;;;;;;10.58;100.00;99049.66;5052449;28;20063;-65
2022/11/06 09:02:25;;;;;;;579.07;518.27;;;;;;;10.78;100.00;99049.38;5052815;28;20067;-65
2022/11/06 09:04:51;;;;;;;599.50;538.07;;;;;;;10.89;100.00;99047.53;5047981;28;20040;-65
2022/11/06 09:07:17;;;;;;;603.83;542.57;;;;;;;11.12;100.00;99048.06;5045774;28;20036;-63
2022/11/06 09:09:42;;;;;;;607.83;546.33;;;;;;;11.15;100.00;99030.06;5050719;28;20049;-64
2022/11/06 09:12:08;;;;;;;618.23;556.53;;;;;;;11.11;100.00;99025.00;5018802;28;20513;-64
2022/11/06 09:14:34;;;;;;;622.70;560.83;;;;;;;11.31;100.00;99025.53;5053507;28;20047;-64
2022/11/06 09:16:59;;;;;;;644.47;582.17;;;;;;;11.50;100.00;99020.97;5047342;28;20044;-63
2022/11/06 09:19:25;;;;;;;651.10;588.40;;;;;;;11.70;100.00;99018.91;5047914;28;20037;-63
2022/11/06 09:21:51;;;;;;;645.13;582.90;;;;;;;11.70;100.00;99011.19;5035223;28;20471;-64
2022/11/06 09:24:16;;;;;;;654.97;592.47;;;;;;;11.96;100.00;99049.31;5037787;28;20560;-62
2022/11/06 09:26:42;;;;;;;656.07;593.20;;;;;;;11.56;100.00;99056.78;5052490;28;20059;-64
2022/11/06 09:29:08;;;;;;;654.03;591.30;;;;;;;11.54;100.00;99033.72;5046405;28;20559;-64
2022/11/06 09:31:33;;;;;;;648.43;585.77;;;;;;;11.73;100.00;99029.16;5050031;28;20664;-64
2022/11/06 09:33:59;;;;;;;658.47;595.80;;;;;;;11.88;100.00;99021.19;5050405;28;20045;-65
2022/11/06 09:36:24;;;;;;;664.40;601.60;;;;;;;12.04;100.00;99024.31;5053412;28;20566;-65
2022/11/06 09:38:50;;;;;;;668.27;605.40;;;;;;;12.01;100.00;99024.38;5052041;28;20037;-66
2022/11/06 09:41:33;;;;;;;677.30;614.47;;;;;;;11.61;100.00;99022.47;5052544;28;20083;-66
2022/11/06 09:44:17;;;;;;;668.17;605.30;;;;;;;11.84;100.00;99024.66;5050063;28;20125;-66
2022/11/06 09:46:45;;;;;;;670.87;607.83;;;;;;;12.13;100.00;99022.44;5054099;28;20045;-66
2022/11/06 09:49:29;;;;;;;657.90;595.43;;;;;;;12.17;100.00;99018.06;5052047;28;20045;-66
2022/11/06 09:52:35;;;;;;;683.00;619.63;;;;;;;12.26;100.00;98992.19;5045466;28;20036;-67
2022/11/06 09:55:05;;;;;;;679.97;616.83;;;;;;;12.25;100.00;99000.78;5049147;28;20047;-66
2022/11/06 09:57:36;;;;;;;700.67;636.87;;;;;;;12.05;100.00;98997.75;5050080;28;20044;-66
2022/11/06 10:00:04;;;;;;;691.13;627.50;;;;;;;12.28;100.00;99011.00;5041415;28;20059;-65
2022/11/06 10:02:44;;;;;;;690.13;626.67;;;;;;;12.38;100.00;99009.09;5051336;28;20056;-64
2022/11/06 10:05:10;;;;;;;698.30;634.87;;;;;;;12.13;100.00;98996.72;5052058;28;20125;-64
2022/11/06 10:07:38;;;;;;;699.60;635.93;;;;;;;12.03;100.00;98990.06;5051640;28;20074;-70
2022/11/06 10:10:10;;;;;;;695.90;632.40;;;;;;;11.95;100.00;98997.06;5048299;28;20041;-65
2022/11/06 10:13:00;;;;;;;689.00;625.50;;;;;;;12.11;100.00;99003.59;5046143;28;20040;-66
2022/11/06 10:15:45;;;;;;;688.67;625.47;;;;;;;12.26;100.00;98992.19;5046430;28;20067;-68
2022/11/06 10:18:21;;;;;;;691.40;628.23;;;;;;;12.00;100.00;98979.00;5045092;28;20044;-69
2022/11/06 10:20:59;;;;;;;697.53;634.17;;;;;;;12.23;100.00;98977.66;5051000;28;20102;-67
2022/11/06 10:23:54;;;;;;;697.57;634.07;;;;;;;12.50;100.00;98988.25;5051676;28;20629;-68
2022/11/06 10:26:38;;;;;;;684.33;621.10;;;;;;;12.38;100.00;98986.81;5048320;28;20454;-66
2022/11/06 10:29:36;;;;;;;697.70;634.20;;;;;;;11.97;100.00;98979.88;5040293;28;20051;-66
2022/11/06 10:32:24;;;;;;;683.13;619.97;;;;;;;11.74;100.00;98966.63;5051874;28;20072;-68
2022/11/06 10:35:07;;;;;;;662.10;599.77;;;;;;;11.98;100.00;98984.16;5053304;28;20155;-66
2022/11/06 10:37:41;;;;;;;674.50;611.27;;;;;;;11.91;100.00;98977.44;5051905;28;20049;-69
2022/11/06 10:40:16;;;;;;;664.47;601.80;;;;;;;11.76;100.00;98960.59;5049824;28;20693;-67
2022/11/06 10:42:42;;;;;;;665.05;602.38;;;;;;;11.87;100.00;98968.97;5048027;28;20048;-65
2022/11/06 10:45:14;;;;;;;663.47;600.73;;;;;;;12.21;100.00;98970.88;5052276;28;20029;-66
2022/11/06 10:48:12;;;;;;;674.03;611.07;;;;;;;12.13;100.00;98959.91;5050181;28;20510;-71
2022/11/06 10:50:51;;;;;;;676.60;613.57;;;;;;;12.23;100.00;98938.25;5053811;28;20061;-68
2022/11/06 10:53:33;;;;;;;686.37;623.40;;;;;;;12.44;100.00;98945.50;5051334;28;20047;-68
2022/11/06 10:56:19;;;;;;;682.60;619.33;;;;;;;12.43;100.00;98933.56;5052752;28;20730;-69
2022/11/06 10:58:45;;;;;;;685.20;622.10;;;;;;;12.53;100.00;98923.91;5059794;28;20056;-68
2022/11/06 11:01:13;;;;;;;705.93;642.03;;;;;;;12.71;100.00;98947.50;5052609;28;20095;-68
2022/11/06 11:03:42;;;;;;;708.57;644.83;;;;;;;12.76;100.00;98931.97;5050980;28;20087;-65
2022/11/06 11:06:08;;;;;;;713.93;650.00;;;;;;;12.45;100.00;98924.06;5054872;28;20044;-66
2022/11/06 11:08:50;;;;;;;716.80;653.03;;;;;;;12.55;100.00;98917.84;5054292;28;20037;-65
2022/11/06 11:11:24;;;;;;;663.47;610.72;;;;;;;12.76;100.00;98924.22;5057125;28;20052;-66
2022/11/06 11:13:56;;;;;;;673.37;611.47;;;;;;;12.80;100.00;98924.13;5050131;28;20418;-65
2022/11/06 11:16:26;;;;;;;682.50;624.25;;;;;;;12.63;99.19;98920.25;5049213;28;20060;-62
2022/11/06 11:18:52;;;;;;;686.93;624.50;;;;;;;12.60;98.15;98918.56;5054624;28;20037;-67
2022/11/06 11:21:17;;;;;;;695.83;633.23;;;;;;;12.61;99.78;98927.13;5049069;28;20044;-66
2022/11/06 11:24:03;;;;;;;673.30;611.60;;;;;;;12.58;95.86;98922.91;5051326;28;20838;-64